PST,Max TemperatureF,Mean TemperatureF,Min TemperatureF,Max Dew PointF,MeanDew PointF,Min DewpointF,Max Humidity, Mean Humidity, Min Humidity, Max Sea Level PressureIn, Mean Sea Level PressureIn, Min Sea Level PressureIn, Max VisibilityMiles, Mean VisibilityMiles, Min VisibilityMiles, Max Wind SpeedMPH, Mean Wind SpeedMPH, Max Gust SpeedMPH,PrecipitationIn, CloudCover, Events, WindDirDegrees
2012-12-1,49,47,44,45,43,41,92,87,86,29.93,29.77,29.57,10,6,2,10,4,29,1.80,8,Rain,125
2012-12-2,50,41,31,46,38,25,93,82,39,30.16,29.73,29.44,10,6,2,10,2,28,1.84,5,Rain,25
2012-12-3,47,38,28,35,30,25,92,78,58,30.28,30.21,30.15,10,7,1,9,2,18,0.09,3,Rain,122
2012-12-4,43,40,37,39,36,30,89,84,76,30.25,30.18,30.13,10,9,6,14,6,24,0.36,8,Rain,118
2012-12-5,52,45,38,45,39,33,96,87,74,30.25,30.17,30.13,10,7,0,8,1,16,0.17,8,Fog-Rain,114
2012-12-6,47,39,30,36,33,26,89,80,60,30.29,30.20,30.12,10,10,2,13,3,22,0.00,4,,338
2012-12-7,43,34,25,30,26,20,88,76,64,30.29,30.25,30.20,10,10,5,12,4,24,0.00,0,,322
2012-12-8,37,33,29,28,26,22,85,79,64,30.35,30.25,30.13,10,10,9,14,5,23,0.00,1,,329
2012-12-9,47,38,28,32,26,22,78,67,45,30.47,30.41,30.35,10,10,10,10,2,20,0.00,2,,341
2012-12-10,53,42,30,36,31,26,82,74,50,30.46,30.39,30.27,10,10,5,9,3,16,0.00,1,,335
2012-12-11,44,35,25,36,32,21,92,83,70,30.24,29.87,29.69,10,8,3,10,2,23,0.06,5,Rain,114
2012-12-12,39,34,29,34,27,22,96,76,54,29.98,29.84,29.69,10,9,3,12,5,20,0.04,4,Snow,319
2012-12-13,40,32,24,24,23,19,84,74,50,30.04,29.94,29.87,10,10,6,9,2,16,0.00,3,,4
2012-12-14,35,28,21,28,24,16,85,78,66,30.09,29.91,29.80,10,8,1,9,3,16,0.01,6,Snow,322
2012-12-15,32,25,17,27,24,13,84,82,72,30.08,29.97,29.88,10,4,0,13,3,21,0.08,7,Fog-Snow,112
2012-12-16,35,33,31,31,28,26,89,84,72,30.07,29.93,29.72,10,3,0,13,5,26,0.25,8,Fog-Rain-Snow,108
2012-12-17,44,33,22,32,27,17,92,80,39,30.07,29.87,29.71,10,7,0,12,2,20,0.05,3,Fog-Rain,310
2012-12-18,36,26,16,20,16,11,84,67,38,30.23,30.11,30.03,10,9,4,13,3,22,0.00,2,Snow,345
2012-12-19,34,24,14,18,13,10,80,61,41,30.32,30.26,30.19,10,10,6,10,2,23,0.00,7,,130
2012-12-20,31,29,27,27,24,19,92,83,63,30.19,29.98,29.86,10,2,0,13,5,26,1.56,8,Fog-Snow,108
2012-12-21,33,32,30,29,27,27,92,87,78,29.98,29.82,29.67,2,1,0,13,4,22,1.27,8,Fog-Snow,104
2012-12-22,37,35,32,31,29,28,89,85,70,29.99,29.78,29.58,10,3,0,8,3,21,0.83,8,Fog-Snow,116
2012-12-23,38,35,32,33,30,28,92,87,82,29.99,29.83,29.69,10,3,0,9,3,24,1.69,8,Fog-Snow,117
2012-12-24,38,31,24,30,24,20,89,76,59,30.28,30.18,29.93,10,9,2,9,1,16,T,3,Snow,253
2012-12-25,33,29,25,28,27,22,92,82,69,30.17,29.89,29.72,10,3,0,12,4,18,0.28,8,Fog-Snow,115
2012-12-26,36,33,29,31,27,23,92,84,64,30.10,29.85,29.69,10,6,1,8,2,16,0.01,8,Snow,215
2012-12-27,41,31,21,28,23,18,88,76,48,30.26,30.18,30.08,10,9,3,9,2,15,0.00,4,,322
2012-12-28,31,25,18,27,24,14,92,86,77,30.24,30.12,30.04,10,4,1,5,0,8,0.04,7,Snow,205
2012-12-29,34,27,20,27,23,16,92,84,75,30.20,30.10,29.99,10,8,2,9,2,17,T,7,Snow,336
2012-12-30,37,28,18,25,23,13,85,76,64,30.35,30.18,30.03,10,10,5,9,3,15,T,6,Snow,4
2012-12-31,35,24,12,22,17,8,84,76,61,30.42,30.36,30.30,10,10,5,12,2,21,T,2,,360